createdAt,value
2017-09-30T00:01:34.122Z,22.33
2017-09-30T00:04:03.061Z,22.07
2017-09-30T00:06:31.401Z,22.97
2017-09-30T00:08:59.754Z,22.07
2017-09-30T00:11:28.119Z,21.40
2017-09-30T00:13:56.490Z,21.30
2017-09-30T00:16:24.835Z,22.40
2017-09-30T00:18:53.206Z,22.87
2017-09-30T00:21:21.563Z,22.23
2017-09-30T00:23:49.906Z,23.30
2017-09-30T00:26:18.282Z,22.70
2017-09-30T00:28:46.626Z,23.70
2017-09-30T00:31:15.102Z,23.70
2017-09-30T00:33:43.458Z,22.87
2017-09-30T00:36:11.798Z,24.30
2017-09-30T00:38:40.150Z,23.70
2017-09-30T00:41:08.482Z,24.30
2017-09-30T00:43:36.829Z,23.67
2017-09-30T00:46:05.174Z,24.77
2017-09-30T00:48:33.559Z,23.30
2017-09-30T00:51:01.903Z,23.60
2017-09-30T00:53:30.251Z,23.80
2017-09-30T00:55:58.597Z,21.93
2017-09-30T00:58:26.953Z,23.70
2017-09-30T01:00:55.323Z,24.90
2017-09-30T01:03:23.675Z,23.10
2017-09-30T01:05:52.051Z,23.53
2017-09-30T01:08:20.394Z,23.63
2017-09-30T01:10:48.742Z,25.83
2017-09-30T01:13:17.105Z,25.20
2017-09-30T01:15:45.458Z,25.50
2017-09-30T01:18:13.863Z,26.27
2017-09-30T01:20:42.207Z,22.63
2017-09-30T01:23:10.557Z,24.70
2017-09-30T01:25:38.936Z,24.30
2017-09-30T01:28:07.287Z,25.70
2017-09-30T01:30:35.660Z,25.50
2017-09-30T01:33:04.005Z,26.63
2017-09-30T01:35:32.354Z,24.37
2017-09-30T01:38:00.697Z,26.30
2017-09-30T01:40:29.047Z,25.37
2017-09-30T01:42:57.418Z,24.10
2017-09-30T01:45:25.762Z,23.93
2017-09-30T01:47:54.108Z,25.77
2017-09-30T01:50:22.466Z,25.50
2017-09-30T01:52:50.810Z,25.87
2017-09-30T01:55:19.158Z,24.30
2017-09-30T01:57:47.508Z,24.20
2017-09-30T02:00:15.851Z,25.80
2017-09-30T02:02:44.223Z,24.80
2017-09-30T02:05:12.571Z,24.77
2017-09-30T02:07:40.951Z,26.60
2017-09-30T02:10:09.294Z,28.13
2017-09-30T02:12:37.670Z,27.23
2017-09-30T02:15:06.015Z,25.10
2017-09-30T02:17:34.383Z,26.33
2017-09-30T02:20:02.731Z,25.40
2017-09-30T02:22:31.083Z,26.03
2017-09-30T02:24:59.426Z,27.30
2017-09-30T02:27:27.775Z,26.90
2017-09-30T02:29:56.114Z,27.23
2017-09-30T02:32:24.487Z,27.43
2017-09-30T02:34:52.850Z,24.03
2017-09-30T02:37:21.204Z,24.87
2017-09-30T02:39:49.551Z,25.03
2017-09-30T02:42:17.898Z,26.40
2017-09-30T02:44:46.271Z,27.10
2017-09-30T02:47:14.799Z,26.00
2017-09-30T02:49:43.143Z,27.10
2017-09-30T02:52:11.500Z,27.23
2017-09-30T02:54:39.842Z,29.33
2017-09-30T02:57:08.194Z,28.90
2017-09-30T02:59:36.547Z,29.47
2017-09-30T03:02:04.901Z,29.33
2017-09-30T03:04:34.073Z,29.30
2017-09-30T03:07:02.449Z,27.93
2017-09-30T03:09:30.802Z,29.67
2017-09-30T03:11:59.175Z,29.10
2017-09-30T03:14:27.522Z,27.60
2017-09-30T03:16:55.871Z,28.97
2017-09-30T03:19:24.217Z,27.87
2017-09-30T03:21:52.606Z,28.47
2017-09-30T03:24:20.954Z,28.20
2017-09-30T03:26:49.306Z,28.10
2017-09-30T03:29:17.659Z,30.33
2017-09-30T03:31:46.002Z,27.00
2017-09-30T03:34:14.390Z,27.13
2017-09-30T03:36:42.762Z,28.80
2017-09-30T03:39:11.150Z,31.50
2017-09-30T03:41:39.494Z,31.50
2017-09-30T03:44:07.859Z,30.50
2017-09-30T03:46:36.198Z,30.67
2017-09-30T03:49:04.570Z,27.60
2017-09-30T03:51:32.949Z,27.33
2017-09-30T03:54:01.296Z,27.63
2017-09-30T03:56:29.650Z,27.07
2017-09-30T03:58:58.004Z,25.97
2017-09-30T04:01:26.346Z,25.43
2017-09-30T04:03:54.722Z,26.70
2017-09-30T04:06:23.076Z,27.17
2017-09-30T04:08:51.422Z,25.70
2017-09-30T04:11:19.769Z,25.90
2017-09-30T04:13:48.118Z,30.03
2017-09-30T04:16:16.508Z,26.80
2017-09-30T04:18:44.855Z,27.90
2017-09-30T04:21:13.200Z,24.20
2017-09-30T04:23:41.553Z,19.40
2017-09-30T04:26:09.898Z,14.40
2017-09-30T04:28:38.294Z,10.60
2017-09-30T04:31:06.632Z,7.70
2017-09-30T04:33:34.962Z,5.73
2017-09-30T04:36:03.294Z,5.10
2017-09-30T04:38:31.662Z,3.57
2017-09-30T04:41:00.018Z,3.30
2017-09-30T04:43:28.351Z,3.60
2017-09-30T04:45:56.722Z,3.20
2017-09-30T04:48:25.081Z,3.00
2017-09-30T04:50:53.455Z,2.93
2017-09-30T04:53:21.782Z,3.20
2017-09-30T04:55:50.132Z,3.90
2017-09-30T04:58:18.639Z,7.43
2017-09-30T05:00:46.994Z,4.33
2017-09-30T05:03:16.027Z,5.00
2017-09-30T05:05:44.580Z,5.80
2017-09-30T05:08:12.947Z,4.70
2017-09-30T05:10:41.315Z,3.90
2017-09-30T05:13:09.733Z,4.27
2017-09-30T05:15:38.072Z,4.80
2017-09-30T05:18:06.414Z,5.53
2017-09-30T05:20:34.755Z,4.83
2017-09-30T05:23:03.107Z,5.83
2017-09-30T05:25:31.475Z,4.70
2017-09-30T05:27:59.819Z,4.53
2017-09-30T05:30:28.199Z,4.80
2017-09-30T05:32:56.542Z,3.57
2017-09-30T05:35:24.920Z,3.90
2017-09-30T05:37:53.261Z,3.80
2017-09-30T05:40:21.599Z,3.10
2017-09-30T05:42:49.963Z,3.27
2017-09-30T05:45:22.214Z,2.70
2017-09-30T05:47:50.586Z,3.30
2017-09-30T05:50:18.964Z,3.20
2017-09-30T05:52:47.450Z,3.23
2017-09-30T05:55:15.975Z,3.53
2017-09-30T05:57:44.517Z,3.60
2017-09-30T06:00:12.943Z,4.10
2017-09-30T06:02:41.375Z,3.60
2017-09-30T06:05:09.903Z,3.77
2017-09-30T06:07:38.439Z,4.33
2017-09-30T06:10:06.931Z,3.50
2017-09-30T06:12:35.270Z,4.00
2017-09-30T06:15:03.615Z,3.20
2017-09-30T06:17:31.988Z,2.80
2017-09-30T06:20:00.321Z,3.40
2017-09-30T06:22:28.666Z,3.60
2017-09-30T06:24:57.015Z,3.10
2017-09-30T06:27:25.577Z,2.83
2017-09-30T06:29:54.104Z,2.40
2017-09-30T06:32:22.659Z,2.40
2017-09-30T06:34:50.998Z,2.53
2017-09-30T06:37:19.339Z,3.17
2017-09-30T06:39:47.671Z,3.13
2017-09-30T06:42:16.035Z,2.67
2017-09-30T06:44:44.362Z,3.50
2017-09-30T06:47:12.749Z,3.70
2017-09-30T06:49:41.080Z,4.40
2017-09-30T06:52:09.426Z,4.47
2017-09-30T06:54:37.762Z,4.37
2017-09-30T06:57:06.107Z,4.17
2017-09-30T06:59:34.475Z,4.63
2017-09-30T07:02:02.828Z,3.63
2017-09-30T07:04:31.155Z,4.10
2017-09-30T07:06:59.511Z,2.77
2017-09-30T07:09:27.846Z,3.07
2017-09-30T07:11:56.207Z,3.30
2017-09-30T07:14:24.544Z,3.50
2017-09-30T07:16:52.912Z,2.93
2017-09-30T07:19:21.239Z,3.00
2017-09-30T07:21:49.702Z,3.17
2017-09-30T07:24:18.035Z,3.00
2017-09-30T07:26:46.370Z,3.60
2017-09-30T07:29:14.707Z,3.47
2017-09-30T07:31:43.043Z,2.93
2017-09-30T07:34:11.381Z,3.03
2017-09-30T07:36:39.722Z,2.97
2017-09-30T07:39:08.075Z,2.33
2017-09-30T07:41:36.407Z,2.40
2017-09-30T07:44:04.779Z,2.53
2017-09-30T07:46:33.139Z,3.50
2017-09-30T07:49:01.534Z,3.10
2017-09-30T07:51:29.861Z,2.67
2017-09-30T07:53:58.198Z,3.13
2017-09-30T07:56:26.521Z,3.00
2017-09-30T07:58:54.882Z,4.70
2017-09-30T08:01:23.222Z,7.60
2017-09-30T08:03:51.590Z,7.53
2017-09-30T08:06:19.934Z,8.50
2017-09-30T08:08:48.275Z,10.00
2017-09-30T08:11:16.648Z,8.47
2017-09-30T08:13:45.020Z,8.60
2017-09-30T08:16:13.358Z,8.30
2017-09-30T08:18:41.726Z,8.70
2017-09-30T08:21:10.059Z,8.70
2017-09-30T08:23:38.432Z,9.27
2017-09-30T08:26:06.775Z,7.10
2017-09-30T08:28:35.115Z,7.10
2017-09-30T08:31:03.482Z,7.53
2017-09-30T08:33:32.004Z,7.50
2017-09-30T08:36:00.340Z,8.13
2017-09-30T08:38:28.683Z,8.53
2017-09-30T08:40:57.027Z,10.40
2017-09-30T08:43:25.386Z,8.90
2017-09-30T08:45:53.854Z,8.53
2017-09-30T08:48:22.199Z,9.23
2017-09-30T08:50:50.539Z,9.73
2017-09-30T08:53:18.885Z,10.73
2017-09-30T08:55:47.238Z,11.73
2017-09-30T08:58:15.598Z,11.87
2017-09-30T09:00:43.961Z,11.13
2017-09-30T09:03:12.438Z,12.20
2017-09-30T09:05:40.789Z,12.60
2017-09-30T09:08:09.143Z,11.37
2017-09-30T09:10:37.490Z,11.00
2017-09-30T09:13:05.843Z,11.63
2017-09-30T09:15:34.221Z,10.80
2017-09-30T09:18:02.751Z,12.47
2017-09-30T09:20:31.122Z,11.13
2017-09-30T09:22:59.467Z,13.30
2017-09-30T09:25:27.846Z,11.30
2017-09-30T09:27:56.200Z,12.40
2017-09-30T09:30:24.603Z,12.87
2017-09-30T09:32:52.953Z,13.23
2017-09-30T09:35:21.307Z,11.30
2017-09-30T09:37:49.650Z,10.90
2017-09-30T09:40:18.026Z,12.00
2017-09-30T09:42:46.403Z,12.00
2017-09-30T09:45:14.749Z,13.13
2017-09-30T09:47:43.104Z,10.30
2017-09-30T09:50:11.454Z,10.17
2017-09-30T09:52:39.790Z,9.70
2017-09-30T14:20:06.923Z,1.83
2017-09-30T14:22:36.110Z,2.80
2017-09-30T14:25:04.450Z,2.47
2017-09-30T14:27:32.827Z,1.30
2017-09-30T14:30:01.516Z,0.97
2017-09-30T14:32:29.878Z,1.13
2017-09-30T14:34:58.218Z,0.93
2017-09-30T14:37:26.583Z,1.17
2017-09-30T14:39:54.918Z,1.60
2017-09-30T14:42:23.255Z,0.80
2017-09-30T14:44:51.591Z,0.73
2017-09-30T14:47:19.924Z,0.60
2017-09-30T14:49:48.259Z,0.70
2017-09-30T14:52:16.627Z,1.03
2017-09-30T14:54:45.010Z,0.70
2017-09-30T14:57:13.334Z,0.87
2017-09-30T14:59:41.696Z,1.13
2017-09-30T15:02:10.030Z,1.37
2017-09-30T15:04:38.362Z,1.10
2017-09-30T15:07:12.327Z,0.93
2017-09-30T15:09:40.686Z,1.10
2017-09-30T15:12:09.047Z,1.10
2017-09-30T15:14:37.397Z,1.60
2017-09-30T15:17:05.765Z,1.63
2017-09-30T15:19:34.099Z,0.90
2017-09-30T15:22:02.427Z,1.30
2017-09-30T15:24:30.768Z,1.07
2017-09-30T15:26:59.110Z,1.57
2017-09-30T15:29:27.571Z,1.57
2017-09-30T15:31:55.902Z,1.23
2017-09-30T15:34:24.241Z,1.30
2017-09-30T15:36:52.583Z,1.30
2017-09-30T15:39:20.913Z,1.50
2017-09-30T15:41:49.419Z,1.63
2017-09-30T15:44:17.755Z,1.53
2017-09-30T15:46:46.086Z,2.10
2017-09-30T15:49:14.418Z,1.77
2017-09-30T15:51:42.879Z,1.93
2017-09-30T15:54:11.215Z,2.47
2017-09-30T15:56:39.558Z,2.20
2017-09-30T15:59:07.890Z,2.00
2017-09-30T16:01:36.226Z,1.80
2017-09-30T16:04:04.601Z,2.00
2017-09-30T16:06:32.922Z,1.67
2017-09-30T16:09:01.268Z,1.53
2017-09-30T16:11:29.611Z,1.50
2017-09-30T16:13:57.942Z,2.60
2017-09-30T16:16:26.279Z,2.13
2017-09-30T16:18:54.615Z,2.00
2017-09-30T16:21:22.978Z,1.63
2017-09-30T16:23:51.311Z,1.93
2017-09-30T16:26:19.683Z,1.80
2017-09-30T16:28:48.011Z,1.40
2017-09-30T16:31:16.342Z,1.63
2017-09-30T16:33:44.686Z,1.80
2017-09-30T16:36:13.018Z,1.90
2017-09-30T16:38:41.355Z,1.50
2017-09-30T16:41:09.686Z,1.80
2017-09-30T16:43:38.020Z,1.90
2017-09-30T16:46:06.366Z,2.10
2017-09-30T16:48:34.692Z,2.33
2017-09-30T16:51:03.114Z,2.77
2017-09-30T16:53:31.461Z,2.63
2017-09-30T16:55:59.896Z,2.60
2017-09-30T16:58:28.274Z,2.57
2017-09-30T17:00:56.629Z,3.00
2017-09-30T17:03:24.967Z,2.10
2017-09-30T17:05:53.327Z,2.40
2017-09-30T17:08:21.657Z,2.97
2017-09-30T17:10:50.018Z,3.03
2017-09-30T17:13:18.355Z,3.33
2017-09-30T17:15:46.735Z,2.60
2017-09-30T17:18:15.066Z,2.57
2017-09-30T17:20:43.408Z,3.00
2017-09-30T17:23:11.745Z,2.60
2017-09-30T17:25:40.074Z,2.40
2017-09-30T17:28:08.442Z,2.60
2017-09-30T17:30:36.785Z,3.40
2017-09-30T17:33:05.137Z,3.30
2017-09-30T17:35:33.467Z,3.50
2017-09-30T17:38:01.805Z,3.00
2017-09-30T17:40:30.148Z,2.87
2017-09-30T17:42:58.470Z,3.40
2017-09-30T17:45:26.807Z,3.33
2017-09-30T17:47:55.203Z,3.33
2017-09-30T17:50:23.542Z,3.20
2017-09-30T17:52:51.890Z,3.70
2017-09-30T17:55:20.257Z,4.00
2017-09-30T17:57:48.598Z,3.43
2017-09-30T18:00:16.937Z,3.40
2017-09-30T18:02:45.298Z,3.77
2017-09-30T18:05:13.645Z,3.40
2017-09-30T18:07:42.014Z,2.90
2017-09-30T18:10:10.338Z,2.93
2017-09-30T18:12:38.675Z,2.80
2017-09-30T18:15:07.021Z,2.87
2017-09-30T18:17:35.387Z,2.17
2017-09-30T18:20:03.723Z,2.10
2017-09-30T18:22:32.061Z,2.00
2017-09-30T18:25:00.414Z,1.83
2017-09-30T18:27:28.747Z,2.87
2017-09-30T18:29:57.074Z,1.90
2017-09-30T18:32:25.406Z,2.20
2017-09-30T18:34:53.783Z,1.90
2017-09-30T18:37:22.110Z,1.93
2017-09-30T18:39:50.575Z,2.53
2017-09-30T18:42:18.927Z,2.70
2017-09-30T18:44:47.250Z,3.27
2017-09-30T18:47:15.583Z,2.70
2017-09-30T18:49:43.919Z,2.70
2017-09-30T18:52:12.269Z,2.43
2017-09-30T18:54:40.599Z,2.10
2017-09-30T18:57:08.967Z,2.10
2017-09-30T18:59:37.332Z,2.13
2017-09-30T19:02:05.692Z,2.00
2017-09-30T19:04:34.032Z,3.50
2017-09-30T19:07:02.426Z,2.60
2017-09-30T19:09:30.755Z,2.13
2017-09-30T19:11:59.990Z,2.00
2017-09-30T19:14:28.317Z,1.97
2017-09-30T19:16:56.685Z,2.33
2017-09-30T19:19:25.026Z,2.50
2017-09-30T19:21:53.393Z,2.43
2017-09-30T19:24:21.718Z,1.90
2017-09-30T19:26:50.087Z,1.90
2017-09-30T19:29:18.422Z,2.20
2017-09-30T19:31:46.764Z,2.10
2017-09-30T19:34:15.099Z,2.13
2017-09-30T19:36:43.468Z,1.97
2017-09-30T19:39:11.803Z,1.90
2017-09-30T19:41:40.135Z,2.07
2017-09-30T19:44:08.466Z,1.60
2017-09-30T19:46:36.806Z,2.30
2017-09-30T19:49:05.158Z,2.30
2017-09-30T19:51:34.150Z,2.10
2017-09-30T19:54:02.488Z,1.90
2017-09-30T19:56:30.814Z,1.93
2017-09-30T19:58:59.166Z,3.80
2017-09-30T20:01:27.494Z,2.67
2017-09-30T20:03:55.862Z,2.10
2017-09-30T20:06:24.195Z,2.00
2017-09-30T20:08:52.518Z,2.60
2017-09-30T20:11:20.854Z,2.90
2017-09-30T20:13:49.192Z,2.53
2017-09-30T20:16:17.556Z,2.90
2017-09-30T20:18:45.889Z,2.60
2017-09-30T20:21:14.218Z,2.87
2017-09-30T20:23:42.662Z,4.90
2017-09-30T20:26:11.026Z,2.97
2017-09-30T20:28:39.363Z,2.83
2017-09-30T20:31:07.702Z,2.83
2017-09-30T20:33:36.089Z,3.80
2017-09-30T20:36:04.428Z,3.37
2017-09-30T20:38:32.771Z,3.50
2017-09-30T20:41:01.106Z,3.17
2017-09-30T20:43:29.443Z,2.90
2017-09-30T20:45:57.797Z,3.93
2017-09-30T20:48:26.133Z,3.43
2017-09-30T20:50:54.465Z,3.67
2017-09-30T20:53:22.802Z,3.10
2017-09-30T20:55:51.142Z,4.10
2017-09-30T20:58:19.478Z,3.50
2017-09-30T21:00:47.822Z,4.13
2017-09-30T21:03:16.190Z,4.13
2017-09-30T21:05:44.530Z,5.43
2017-09-30T21:08:12.863Z,6.20
2017-09-30T21:10:41.204Z,6.90
2017-09-30T21:13:09.542Z,5.77
2017-09-30T21:15:37.882Z,7.17
2017-09-30T21:18:06.263Z,6.20
2017-09-30T21:20:34.608Z,7.67
2017-09-30T21:23:02.937Z,8.43
2017-09-30T21:25:31.283Z,9.07
2017-09-30T21:27:59.632Z,8.23
2017-09-30T21:30:27.970Z,8.77
2017-09-30T21:32:56.336Z,6.40
2017-09-30T21:35:24.661Z,7.50
2017-09-30T21:37:53.002Z,8.03
2017-09-30T21:40:21.342Z,9.67
2017-09-30T21:42:49.683Z,9.20
2017-09-30T21:45:18.022Z,9.37
2017-09-30T21:47:46.387Z,9.27
2017-09-30T21:50:14.750Z,8.80
2017-09-30T21:52:43.085Z,7.83
2017-09-30T21:55:11.429Z,9.70
2017-09-30T21:57:39.770Z,8.40
2017-09-30T22:00:08.122Z,7.30
2017-09-30T22:02:36.478Z,7.03
2017-09-30T22:05:04.814Z,5.67
2017-09-30T22:07:33.287Z,7.47
2017-09-30T22:10:01.647Z,7.23
2017-09-30T22:12:29.979Z,8.57
2017-09-30T22:14:58.314Z,7.40
2017-09-30T22:17:26.658Z,10.33
2017-09-30T22:19:54.999Z,9.93
2017-09-30T22:22:23.370Z,9.70
2017-09-30T22:24:51.735Z,9.93
2017-09-30T22:27:20.080Z,11.10
2017-09-30T22:29:48.452Z,9.60
2017-09-30T22:32:16.796Z,10.20
2017-09-30T22:34:45.138Z,9.97
2017-09-30T22:37:13.998Z,9.10
2017-09-30T22:39:42.348Z,8.87
2017-09-30T22:42:10.683Z,9.47
2017-09-30T22:44:39.023Z,7.70
2017-09-30T22:47:07.370Z,7.67
2017-09-30T22:49:35.711Z,8.40
2017-09-30T22:52:04.086Z,9.80
2017-09-30T22:54:32.551Z,10.40
2017-09-30T22:57:00.889Z,9.90
2017-09-30T22:59:29.238Z,11.37
2017-09-30T23:01:57.583Z,10.83
2017-09-30T23:04:25.932Z,10.87
2017-09-30T23:06:54.274Z,10.47
2017-09-30T23:09:22.618Z,11.80
2017-09-30T23:11:50.966Z,10.77
2017-09-30T23:14:19.309Z,11.83
2017-09-30T23:16:47.654Z,11.53
2017-09-30T23:19:16.042Z,10.10
2017-09-30T23:21:44.378Z,9.23
2017-09-30T23:24:12.746Z,9.03
2017-09-30T23:26:41.095Z,10.73
2017-09-30T23:29:09.434Z,10.57
2017-09-30T23:31:37.787Z,9.73
2017-09-30T23:34:06.124Z,9.40
2017-09-30T23:36:34.460Z,9.93
2017-09-30T23:39:02.808Z,10.70
2017-09-30T23:41:31.184Z,9.77
2017-09-30T23:43:59.518Z,8.30
2017-09-30T23:46:27.867Z,9.50
2017-09-30T23:48:56.202Z,11.77
2017-09-30T23:51:24.555Z,11.23
2017-09-30T23:53:52.897Z,9.63
2017-09-30T23:56:21.235Z,9.63
2017-09-30T23:58:49.578Z,9.93
